Ormond, Louisiana
Current Conditions -  °F | °C
As of 6:53 AM on Thursday 23 Oct 2014 (Local Time) from KMSY Reporting Station
Clear Clear  
Wind Chill: 62°   Ceiling: Unl
Heat Index: 62°   Visibility: 10mi
Dew Point: 50°   Wind: 7mph
Humidity: 65%   Direction: 50°NE
Pressure: 30.07"   Gusts: NA
Location:  29.9844°N, 90.363°W
Report Text: KMSY 231153Z 05006KT 10SM CLR 17/10 A3007 RMK AO2 SLP186 T01670100 10200 20167 53006
Loading
Personal Weather Stations






























Interactive Weather Map
Tropical Storm Tracking
New forecast layout! Learn more

10-Day Weather Forecast

Advertisements
Track Severe Weather on mobile